Time;durP1;ratioP1;P1;durP2;ratioP2;P2;SDS_P1;SDS_P2;PMS_P1;PMS_P2;Temp;Humidity;BMP_temperature;BMP_pressure;BME280_temperature;BME280_humidity;BME280_pressure;Samples;Min_cycle;Max_cycle;Signal;HPM_P1;HPM_P2
2023/01/16 00:01:22;;;;;;;4.17;1.60;;;5.40;99.90;;;;;;5002444;28;20482;-80
2023/01/16 00:03:49;;;;;;;4.17;1.50;;;5.20;99.90;;;;;;5005507;28;20464;-80
2023/01/16 00:06:16;;;;;;;4.37;2.30;;;5.10;99.90;;;;;;5003371;28;20465;-81
2023/01/16 00:08:43;;;;;;;3.90;2.33;;;5.10;99.90;;;;;;5003124;28;20457;-81
2023/01/16 00:11:12;;;;;;;4.97;2.50;;;5.00;99.90;;;;;;5003378;28;20513;-82
2023/01/16 00:13:39;;;;;;;5.93;3.60;;;4.90;99.90;;;;;;5002110;28;20450;-81
2023/01/16 00:16:06;;;;;;;5.37;3.97;;;4.80;99.90;;;;;;5002433;28;20462;-81
2023/01/16 00:18:34;;;;;;;8.23;4.00;;;4.70;99.90;;;;;;5002916;28;20825;-82
2023/01/16 00:21:01;;;;;;;12.20;6.50;;;4.70;99.90;;;;;;5001998;28;20485;-81
2023/01/16 00:23:27;;;;;;;11.83;10.80;;;4.70;99.90;;;;;;5002268;28;20461;-81
2023/01/16 00:25:54;;;;;;;13.70;13.00;;;4.60;99.90;;;;;;4982662;28;20466;-81
2023/01/16 00:28:22;;;;;;;23.10;21.97;;;4.60;99.90;;;;;;4982548;28;20458;-81
2023/01/16 00:30:49;;;;;;;24.10;21.87;;;4.50;99.90;;;;;;5002422;28;20489;-80
2023/01/16 00:33:16;;;;;;;18.20;17.10;;;4.60;99.90;;;;;;5002640;28;20979;-81
2023/01/16 00:35:42;;;;;;;16.50;15.37;;;4.70;99.90;;;;;;5003007;28;20676;-81
2023/01/16 00:38:09;;;;;;;23.47;22.37;;;4.70;99.90;;;;;;5002017;28;20450;-82
2023/01/16 00:40:36;;;;;;;21.83;20.57;;;4.50;99.90;;;;;;5002726;28;20470;-81
2023/01/16 00:43:03;;;;;;;24.23;22.73;;;4.50;99.90;;;;;;5002566;28;20462;-81
2023/01/16 00:45:31;;;;;;;23.83;22.47;;;4.50;99.90;;;;;;5002486;28;20461;-81
2023/01/16 00:47:58;;;;;;;23.70;22.40;;;4.50;99.90;;;;;;5002084;28;20450;-81
2023/01/16 00:50:25;;;;;;;24.27;23.07;;;4.40;99.90;;;;;;5002266;28;20470;-81
2023/01/16 00:52:51;;;;;;;31.57;30.20;;;4.40;99.90;;;;;;5002085;28;20454;-81
2023/01/16 00:55:18;;;;;;;37.10;35.10;;;4.40;99.90;;;;;;5002234;28;20454;-81
2023/01/16 00:57:45;;;;;;;30.00;28.80;;;4.40;99.90;;;;;;5002228;28;20459;-80
2023/01/16 01:00:12;;;;;;;20.13;19.23;;;4.40;99.90;;;;;;5002247;28;20474;-82
2023/01/16 01:02:40;;;;;;;22.00;21.10;;;4.50;99.90;;;;;;5002060;28;20478;-81
2023/01/16 01:05:08;;;;;;;21.13;20.10;;;4.50;99.90;;;;;;5002387;28;20508;-81
2023/01/16 01:07:35;;;;;;;21.07;20.07;;;4.50;99.90;;;;;;5001568;28;20469;-80
2023/01/16 01:10:01;;;;;;;20.80;19.43;;;4.50;99.90;;;;;;5002027;28;20457;-81
2023/01/16 01:12:28;;;;;;;17.93;16.43;;;4.50;99.90;;;;;;5002158;28;21084;-81
2023/01/16 01:14:55;;;;;;;20.07;18.87;;;4.60;99.90;;;;;;5002495;28;20450;-82
2023/01/16 01:17:22;;;;;;;22.50;21.00;;;4.70;99.90;;;;;;5002403;28;20454;-81
2023/01/16 01:19:50;;;;;;;17.43;16.07;;;4.80;99.90;;;;;;5003222;28;20457;-82
2023/01/16 01:22:17;;;;;;;17.97;16.97;;;4.80;99.90;;;;;;5001857;28;20466;-83
2023/01/16 01:24:44;;;;;;;12.33;11.43;;;4.90;99.90;;;;;;5001888;28;20454;-81
2023/01/16 01:27:10;;;;;;;7.43;6.90;;;5.10;99.90;;;;;;5001119;28;20454;-81
2023/01/16 01:29:37;;;;;;;8.37;7.67;;;5.00;99.90;;;;;;5001383;28;20450;-81
2023/01/16 01:32:05;;;;;;;7.23;6.63;;;5.10;99.90;;;;;;5002293;28;20466;-81
2023/01/16 01:34:33;;;;;;;8.90;6.73;;;5.10;99.90;;;;;;5000763;28;20529;-81
2023/01/16 01:37:02;;;;;;;6.17;5.67;;;5.00;99.90;;;;;;5001307;28;20450;-81
2023/01/16 01:39:28;;;;;;;7.50;6.80;;;5.00;99.90;;;;;;5002071;28;20949;-82
2023/01/16 01:42:41;;;;;;;8.27;7.50;;;5.00;99.90;;;;;;5001106;28;20474;-81
2023/01/16 01:44:49;;;;;;;10.27;9.70;;;4.90;99.90;;;;;;5001340;28;20900;-83
2023/01/16 01:47:20;;;;;;;9.67;8.77;;;4.90;99.90;;;;;;4981950;28;20454;-82
2023/01/16 01:49:48;;;;;;;5.70;3.13;;;4.90;99.90;;;;;;4981958;28;20469;-81
2023/01/16 01:52:18;;;;;;;7.70;4.47;;;5.00;99.90;;;;;;4983909;28;20447;-81
2023/01/16 01:54:49;;;;;;;7.03;6.37;;;5.00;99.90;;;;;;5001587;28;20457;-81
2023/01/16 01:57:20;;;;;;;9.40;8.80;;;5.00;99.90;;;;;;5000045;28;20442;-82
2023/01/16 01:59:54;;;;;;;12.53;11.83;;;5.00;99.90;;;;;;5001120;28;20489;-82
2023/01/16 02:02:25;;;;;;;13.77;12.60;;;4.90;99.90;;;;;;5000724;28;20469;-81
2023/01/16 02:04:56;;;;;;;12.97;12.10;;;4.90;99.90;;;;;;5000944;28;20461;-82
2023/01/16 02:07:26;;;;;;;10.63;9.67;;;4.90;99.90;;;;;;5001185;28;20458;-81
2023/01/16 02:09:57;;;;;;;12.27;11.37;;;4.90;99.90;;;;;;5000953;28;20458;-81
2023/01/16 02:12:24;;;;;;;12.53;11.53;;;5.10;99.90;;;;;;5000468;28;20446;-81
2023/01/16 02:14:51;;;;;;;13.93;13.00;;;5.10;99.90;;;;;;5000376;28;20450;-81
2023/01/16 02:20:16;;;;;;;13.07;12.27;;;4.80;99.90;;;;;;5004192;28;20476;-81
2023/01/16 02:23:28;;;;;;;10.07;9.37;;;4.60;99.90;;;;;;5003489;28;20500;-79
2023/01/16 02:26:30;;;;;;;16.43;14.97;;;4.50;99.90;;;;;;4979472;28;20458;-81
2023/01/16 02:29:27;;;;;;;21.17;20.23;;;4.30;99.90;;;;;;4987566;28;20453;-81
2023/01/16 02:32:02;;;;;;;46.93;45.03;;;4.20;99.90;;;;;;5004390;28;20465;-82
2023/01/16 02:34:42;;;;;;;30.97;29.73;;;4.20;99.90;;;;;;5004501;28;20516;-81
2023/01/16 02:37:22;;;;;;;31.07;29.83;;;4.20;99.90;;;;;;5003716;28;20471;-81
2023/01/16 02:39:57;;;;;;;37.63;36.13;;;4.20;99.90;;;;;;5004359;28;20449;-82
2023/01/16 02:42:30;;;;;;;29.63;28.47;;;4.10;99.90;;;;;;5004272;28;20485;-81
2023/01/16 02:45:05;;;;;;;51.07;49.20;;;4.20;99.90;;;;;;5004870;28;20465;-80
2023/01/16 02:47:41;;;;;;;71.13;68.63;;;4.10;99.90;;;;;;5004086;28;20900;-81
2023/01/16 02:50:19;;;;;;;69.40;66.87;;;4.00;99.90;;;;;;5003353;28;20546;-82
2023/01/16 02:52:49;;;;;;;89.50;86.53;;;4.00;99.90;;;;;;5004621;28;20465;-81
2023/01/16 02:55:22;;;;;;;64.57;62.30;;;3.90;99.90;;;;;;5003451;28;20461;-81
2023/01/16 02:57:53;;;;;;;35.93;34.57;;;4.00;99.90;;;;;;5003999;28;20458;-82
2023/01/16 03:00:21;;;;;;;60.63;58.10;;;4.10;99.90;;;;;;5005044;28;20480;-81
2023/01/16 03:02:49;;;;;;;89.10;85.97;;;4.10;99.90;;;;;;5005468;28;20560;-81
2023/01/16 03:05:16;;;;;;;65.53;62.83;;;4.10;99.90;;;;;;5003650;28;20471;-81
2023/01/16 03:08:12;;;;;;;54.20;52.03;;;4.20;99.90;;;;;;5004507;28;20466;-83
2023/01/16 03:11:12;;;;;;;52.97;50.07;;;4.20;99.90;;;;;;5004599;28;20470;-83
2023/01/16 03:14:02;;;;;;;71.87;69.33;;;4.10;99.90;;;;;;5003388;28;20442;-81
2023/01/16 03:16:37;;;;;;;43.93;42.30;;;4.00;99.90;;;;;;5004623;28;20450;-81
2023/01/16 03:19:16;;;;;;;22.20;21.23;;;3.90;99.90;;;;;;4984715;28;20486;-81
2023/01/16 03:21:54;;;;;;;21.33;20.33;;;4.00;99.90;;;;;;4986265;28;20873;-81
2023/01/16 03:24:31;;;;;;;15.00;14.30;;;3.90;99.90;;;;;;5003840;28;20875;-81
2023/01/16 03:27:03;;;;;;;13.40;12.77;;;3.90;99.90;;;;;;5002014;28;20456;-81
2023/01/16 03:29:33;;;;;;;14.97;14.27;;;3.90;99.90;;;;;;5003819;28;20462;-81
2023/01/16 03:32:06;;;;;;;14.33;13.57;;;4.00;99.90;;;;;;5003014;28;20477;-81
2023/01/16 03:34:41;;;;;;;24.17;22.67;;;4.00;99.90;;;;;;4996947;28;20454;-82
2023/01/16 03:37:12;;;;;;;15.70;15.00;;;3.90;99.90;;;;;;5001837;28;20453;-81
2023/01/16 03:39:46;;;;;;;19.20;17.90;;;3.90;99.90;;;;;;5002563;28;20462;-82
2023/01/16 03:42:18;;;;;;;14.50;13.70;;;3.80;99.90;;;;;;4993576;28;20480;-82
2023/01/16 03:44:51;;;;;;;13.43;12.70;;;3.80;99.90;;;;;;5003592;28;20458;-81
2023/01/16 03:47:24;;;;;;;8.07;7.57;;;3.80;99.90;;;;;;5003998;28;20812;-82
2023/01/16 03:49:56;;;;;;;9.93;9.37;;;3.90;99.90;;;;;;5002087;28;20509;-82
2023/01/16 03:52:28;;;;;;;17.83;17.03;;;3.90;99.90;;;;;;5003357;28;20798;-81
2023/01/16 03:55:02;;;;;;;19.00;18.17;;;3.90;99.90;;;;;;5003225;28;20457;-81
2023/01/16 03:57:33;;;;;;;22.53;21.60;;;4.00;99.90;;;;;;5003200;28;20438;-81
2023/01/16 04:00:01;;;;;;;24.57;23.27;;;3.90;99.90;;;;;;4999423;28;20457;-78
2023/01/16 04:02:33;;;;;;;34.50;33.17;;;3.90;99.90;;;;;;4997405;28;20506;-80
2023/01/16 04:05:07;;;;;;;60.47;58.33;;;3.90;99.90;;;;;;5002340;28;20465;-81
2023/01/16 04:07:39;;;;;;;106.20;102.67;;;3.70;99.90;;;;;;5001368;28;20453;-81
2023/01/16 04:10:10;;;;;;;135.97;131.57;;;3.70;99.90;;;;;;5002697;28;20470;-82
2023/01/16 04:12:41;;;;;;;154.57;149.27;;;3.60;99.90;;;;;;5002314;28;20453;-80
2023/01/16 04:15:09;;;;;;;193.67;187.53;;;3.50;99.90;;;;;;5002530;28;20458;-82
2023/01/16 04:17:38;;;;;;;215.43;208.70;;;3.60;99.90;;;;;;5002233;28;20465;-81
2023/01/16 04:20:08;;;;;;;237.57;230.13;;;3.50;99.90;;;;;;5001943;28;20990;-81
2023/01/16 04:22:35;;;;;;;298.03;288.13;;;3.50;99.90;;;;;;5002277;28;20466;-81
2023/01/16 04:25:05;;;;;;;339.80;328.40;;;3.50;99.90;;;;;;5001150;28;20458;-81
2023/01/16 04:27:32;;;;;;;402.93;387.73;;;3.60;99.90;;;;;;5001242;28;20450;-81
2023/01/16 04:29:59;;;;;;;408.50;392.80;;;3.70;99.90;;;;;;4995917;28;20891;-82
2023/01/16 04:32:26;;;;;;;399.53;384.30;;;3.70;99.90;;;;;;5001091;28;20450;-81
2023/01/16 04:34:52;;;;;;;379.30;364.70;;;3.80;99.90;;;;;;5000914;28;20477;-81
2023/01/16 04:37:20;;;;;;;371.27;356.67;;;3.70;99.90;;;;;;5000521;28;20454;-81
2023/01/16 04:39:47;;;;;;;362.07;348.57;;;3.80;99.90;;;;;;4999882;28;20454;-82
2023/01/16 04:42:14;;;;;;;356.47;343.20;;;3.80;99.90;;;;;;5000385;28;20485;-79
2023/01/16 04:44:41;;;;;;;377.53;363.10;;;3.80;99.90;;;;;;5000420;28;20456;-82
2023/01/16 04:47:07;;;;;;;378.60;364.43;;;3.80;99.90;;;;;;5000632;28;20454;-81
2023/01/16 04:49:34;;;;;;;372.50;358.13;;;3.90;99.90;;;;;;5000849;28;20468;-81
2023/01/16 04:52:01;;;;;;;356.73;343.60;;;3.90;99.90;;;;;;5000966;28;20478;-81
2023/01/16 04:54:29;;;;;;;357.27;343.60;;;4.10;99.90;;;;;;5000265;28;20935;-80
2023/01/16 04:56:56;;;;;;;342.40;329.30;;;4.00;99.90;;;;;;4999926;28;20474;-80
2023/01/16 04:59:22;;;;;;;332.33;320.07;;;4.10;99.90;;;;;;5000828;28;20454;-80
2023/01/16 05:01:49;;;;;;;326.50;314.30;;;4.20;99.90;;;;;;4999895;28;20474;-81
2023/01/16 05:04:17;;;;;;;315.70;303.70;;;4.20;99.90;;;;;;5000003;28;20474;-81
2023/01/16 05:06:44;;;;;;;319.93;307.03;;;4.20;99.90;;;;;;5000277;28;20454;-81
2023/01/16 05:09:11;;;;;;;301.03;290.00;;;4.20;99.90;;;;;;4999952;28;20837;-81
2023/01/16 05:11:39;;;;;;;285.53;275.53;;;4.30;99.90;;;;;;5008834;28;20474;-80
2023/01/16 05:14:07;;;;;;;261.13;252.13;;;4.40;99.90;;;;;;4999805;28;20450;-81
2023/01/16 05:16:34;;;;;;;251.10;242.60;;;4.40;99.90;;;;;;4999574;28;20457;-81
2023/01/16 05:19:01;;;;;;;237.90;230.00;;;4.40;99.90;;;;;;5000095;28;20446;-82
2023/01/16 05:21:28;;;;;;;223.43;216.13;;;4.50;99.90;;;;;;4997971;28;20849;-81
2023/01/16 05:23:55;;;;;;;190.47;183.93;;;4.50;99.90;;;;;;4998549;28;20478;-81
2023/01/16 05:26:21;;;;;;;132.37;127.40;;;4.60;99.90;;;;;;4997945;28;20973;-83
2023/01/16 05:28:49;;;;;;;104.23;100.37;;;4.70;99.90;;;;;;4998502;28;20453;-80
2023/01/16 05:31:16;;;;;;;90.20;86.90;;;4.70;99.90;;;;;;4999698;28;20485;-81
2023/01/16 05:33:43;;;;;;;80.33;77.13;;;4.70;99.90;;;;;;5000342;28;20450;-81
2023/01/16 05:36:10;;;;;;;61.57;59.33;;;4.80;99.90;;;;;;4996707;28;20457;-81
2023/01/16 05:38:36;;;;;;;50.37;48.27;;;4.80;99.90;;;;;;4981175;28;20454;-81
2023/01/16 05:41:03;;;;;;;38.03;36.53;;;4.80;99.90;;;;;;4980169;28;20481;-80
2023/01/16 05:43:30;;;;;;;35.70;34.20;;;4.90;99.90;;;;;;4980659;28;20483;-82
2023/01/16 05:45:59;;;;;;;31.70;30.20;;;4.80;99.90;;;;;;4981228;28;20467;-81
2023/01/16 05:48:25;;;;;;;29.53;28.23;;;4.90;99.90;;;;;;4989201;28;20460;-81
2023/01/16 05:50:52;;;;;;;23.83;22.73;;;4.90;99.90;;;;;;4999345;28;20474;-82
2023/01/16 05:53:19;;;;;;;25.93;24.33;;;4.90;99.90;;;;;;5003398;28;20533;-81
2023/01/16 05:55:48;;;;;;;23.30;21.97;;;4.90;99.90;;;;;;5003980;28;20840;-81
2023/01/16 05:58:16;;;;;;;22.60;21.50;;;4.90;99.90;;;;;;5004586;28;20659;-82
2023/01/16 06:00:45;;;;;;;18.63;17.10;;;5.00;99.90;;;;;;5004088;28;20480;-82
2023/01/16 06:03:15;;;;;;;15.30;14.33;;;5.00;99.90;;;;;;5003919;28;20478;-81
2023/01/16 06:05:42;;;;;;;10.33;9.73;;;5.10;99.90;;;;;;5003615;28;20454;-79
2023/01/16 06:08:11;;;;;;;9.60;9.00;;;5.10;99.90;;;;;;5003947;28;20457;-82
2023/01/16 06:10:41;;;;;;;8.90;8.00;;;5.10;99.90;;;;;;5003593;28;20477;-81
2023/01/16 06:13:07;;;;;;;8.93;8.20;;;5.10;99.90;;;;;;5004187;28;20457;-82
2023/01/16 06:15:34;;;;;;;7.97;7.27;;;5.10;99.90;;;;;;5004043;28;20450;-81
2023/01/16 06:18:01;;;;;;;7.83;7.13;;;5.20;99.90;;;;;;4996952;28;20466;-80
2023/01/16 06:20:29;;;;;;;10.13;6.80;;;5.20;99.90;;;;;;4984399;28;20496;-83
2023/01/16 06:22:56;;;;;;;5.40;4.90;;;5.20;99.90;;;;;;5001756;28;20484;-82
2023/01/16 06:25:22;;;;;;;9.77;4.50;;;5.30;99.90;;;;;;5003843;28;20453;-82
2023/01/16 06:27:50;;;;;;;5.60;4.00;;;5.20;99.90;;;;;;5003463;28;20456;-84
2023/01/16 06:30:17;;;;;;;6.83;3.73;;;5.30;99.90;;;;;;5003584;28;21014;-81
2023/01/16 06:32:47;;;;;;;6.63;3.60;;;5.30;99.90;;;;;;5003086;28;20891;-82
2023/01/16 06:35:14;;;;;;;3.40;2.60;;;5.40;99.90;;;;;;5003473;28;20481;-82
2023/01/16 06:37:42;;;;;;;7.70;4.13;;;5.40;99.90;;;;;;5003291;28;20968;-81
2023/01/16 06:40:10;;;;;;;4.53;4.13;;;5.40;99.90;;;;;;5002825;28;20520;-81
2023/01/16 06:42:37;;;;;;;4.10;2.87;;;5.50;99.90;;;;;;5003395;28;20458;-81
2023/01/16 06:45:05;;;;;;;9.70;2.43;;;5.40;99.90;;;;;;5003451;28;20454;-80
2023/01/16 06:47:32;;;;;;;4.33;2.10;;;5.40;99.90;;;;;;5000472;28;20454;-80
2023/01/16 06:49:59;;;;;;;6.30;2.13;;;5.40;99.90;;;;;;5001178;28;20450;-81
2023/01/16 06:52:25;;;;;;;4.90;2.40;;;5.50;99.90;;;;;;5001236;28;20529;-81
2023/01/16 06:54:53;;;;;;;4.30;2.40;;;5.50;99.90;;;;;;5000863;28;20450;-81
2023/01/16 06:57:20;;;;;;;4.97;2.30;;;5.40;99.90;;;;;;4986752;28;20474;-80
2023/01/16 06:59:47;;;;;;;5.80;2.50;;;5.50;99.90;;;;;;4982326;28;20455;-80
2023/01/16 07:02:13;;;;;;;3.60;1.90;;;5.50;99.90;;;;;;4999683;28;20969;-81
2023/01/16 07:04:40;;;;;;;4.10;1.90;;;5.50;99.90;;;;;;4996834;28;20470;-80
2023/01/16 07:07:07;;;;;;;3.80;1.73;;;5.50;99.90;;;;;;4998459;28;20957;-80
2023/01/16 07:09:34;;;;;;;4.87;2.30;;;5.50;99.90;;;;;;4996612;28;20990;-80
2023/01/16 07:12:02;;;;;;;4.63;1.70;;;5.50;99.90;;;;;;4998067;28;20490;-80
2023/01/16 07:22:44;;;;;;;3.20;1.60;;;5.60;99.90;;;;;;5000059;28;20425;-80
2023/01/16 07:25:14;;;;;;;4.60;2.00;;;5.50;99.90;;;;;;4999885;28;20813;-81
2023/01/16 07:27:43;;;;;;;5.03;2.33;;;5.60;99.90;;;;;;4999685;28;20454;-80
2023/01/16 07:30:11;;;;;;;5.67;2.30;;;5.50;99.90;;;;;;4999184;28;20473;-80
2023/01/16 07:32:39;;;;;;;4.03;2.30;;;5.50;99.90;;;;;;4999101;28;20458;-80
2023/01/16 07:35:07;;;;;;;3.67;2.23;;;5.50;99.90;;;;;;4997665;28;20454;-80
2023/01/16 07:37:34;;;;;;;3.87;3.30;;;5.50;99.90;;;;;;4999002;28;20490;-80
2023/01/16 07:40:00;;;;;;;6.83;3.70;;;5.40;99.90;;;;;;4997030;28;20450;-79
2023/01/16 07:42:27;;;;;;;5.43;4.90;;;5.40;99.90;;;;;;4997328;28;20458;-81
2023/01/16 07:44:55;;;;;;;7.47;6.87;;;5.40;99.90;;;;;;4996437;28;20478;-79
2023/01/16 07:47:22;;;;;;;9.47;8.67;;;5.40;99.90;;;;;;4996819;28;20462;-79
2023/01/16 07:49:50;;;;;;;19.30;18.20;;;5.30;99.90;;;;;;4994755;28;20454;-82
2023/01/16 07:52:18;;;;;;;36.60;33.97;;;5.30;99.90;;;;;;4996194;28;20454;-79
2023/01/16 07:54:44;;;;;;;51.90;49.70;;;5.30;99.90;;;;;;4994188;28;20450;-79
2023/01/16 07:57:11;;;;;;;68.00;65.20;;;5.20;99.90;;;;;;4994534;28;20454;-79
2023/01/16 07:59:38;;;;;;;84.00;80.60;;;5.20;99.90;;;;;;4994407;28;20807;-79
2023/01/16 08:02:06;;;;;;;94.77;91.13;;;5.20;99.90;;;;;;4993908;28;20489;-79
2023/01/16 08:04:33;;;;;;;79.53;76.57;;;5.20;99.90;;;;;;4994002;28;20818;-79
2023/01/16 08:07:00;;;;;;;40.95;39.00;;;5.20;99.90;;;;;;4993183;28;20467;-81
2023/01/16 08:09:26;;;;;;;38.30;36.50;;;5.20;99.90;;;;;;4994418;28;20226;-79
2023/01/16 08:11:53;;;;;;;34.67;33.20;;;5.20;99.90;;;;;;4994736;28;21031;-79
2023/01/16 08:14:20;;;;;;;26.50;25.40;;;5.30;99.90;;;;;;4994987;28;20450;-79
2023/01/16 08:16:47;;;;;;;23.00;21.90;;;5.30;99.90;;;;;;4994987;28;20458;-80
2023/01/16 08:19:15;;;;;;;17.27;16.37;;;5.30;99.90;;;;;;4996415;28;20458;-80
2023/01/16 08:21:41;;;;;;;17.60;16.47;;;5.30;99.90;;;;;;4996152;28;21019;-79
2023/01/16 08:24:09;;;;;;;16.53;15.60;;;5.30;99.90;;;;;;4996025;28;20481;-80
2023/01/16 08:26:36;;;;;;;20.73;12.00;;;5.30;99.90;;;;;;4995965;28;20458;-80
2023/01/16 08:29:02;;;;;;;11.17;10.57;;;5.40;99.90;;;;;;4995911;28;20453;-80
2023/01/16 08:31:29;;;;;;;10.80;10.00;;;5.40;99.90;;;;;;4996037;28;20573;-80
2023/01/16 08:33:56;;;;;;;9.30;8.70;;;5.40;99.90;;;;;;4996315;28;20461;-80
2023/01/16 08:36:25;;;;;;;7.53;7.03;;;5.40;99.90;;;;;;4996082;28;20457;-79
2023/01/16 08:38:52;;;;;;;7.43;6.73;;;5.40;99.90;;;;;;4996298;28;20454;-80
2023/01/16 08:52:29;;;;;;;6.43;5.93;;;5.40;99.90;;;;;;4995534;28;20441;-80
2023/01/16 08:54:57;;;;;;;7.90;7.23;;;5.30;99.90;;;;;;4995070;28;20446;-79
2023/01/16 08:57:24;;;;;;;15.20;9.47;;;5.30;99.90;;;;;;4994740;28;20461;-80
2023/01/16 08:59:50;;;;;;;11.00;10.10;;;5.30;99.90;;;;;;4995513;28;20458;-80
2023/01/16 09:02:19;;;;;;;14.40;13.50;;;5.30;99.90;;;;;;4995059;28;20827;-79
2023/01/16 09:04:45;;;;;;;13.20;11.30;;;5.20;99.90;;;;;;4994352;28;20480;-80
2023/01/16 09:07:12;;;;;;;8.10;7.43;;;5.30;99.90;;;;;;4995010;28;20460;-83
2023/01/16 09:09:41;;;;;;;11.70;11.00;;;5.30;99.90;;;;;;4995265;28;20454;-80
2023/01/16 09:14:55;;;;;;;15.20;14.40;;;5.30;99.90;;;;;;4995456;28;20489;-80
2023/01/16 09:17:22;;;;;;;20.07;18.60;;;5.30;99.90;;;;;;4995507;28;20454;-79
2023/01/16 09:19:49;;;;;;;13.07;12.07;;;5.30;99.90;;;;;;4995637;28;20454;-79
2023/01/16 09:22:16;;;;;;;12.60;11.90;;;5.30;99.90;;;;;;4995695;28;20461;-80
2023/01/16 09:24:44;;;;;;;12.13;11.43;;;5.20;99.90;;;;;;4995077;28;20476;-80
2023/01/16 09:27:12;;;;;;;10.73;9.93;;;5.30;99.90;;;;;;4994407;28;20260;-79
2023/01/16 09:29:39;;;;;;;10.27;9.67;;;5.30;99.90;;;;;;4995252;28;20585;-80
2023/01/16 09:32:08;;;;;;;8.90;8.33;;;5.40;99.90;;;;;;4996125;28;20889;-80
2023/01/16 09:34:35;;;;;;;9.03;8.53;;;5.40;99.90;;;;;;4995195;28;20461;-80
2023/01/16 09:37:02;;;;;;;6.60;6.00;;;5.40;99.90;;;;;;4993849;28;20998;-80
2023/01/16 09:39:29;;;;;;;5.70;5.20;;;5.40;99.90;;;;;;4994729;28;20841;-81
2023/01/16 09:45:06;;;;;;;5.73;5.23;;;5.30;99.90;;;;;;4995855;28;21255;-80
2023/01/16 09:47:35;;;;;;;4.93;4.53;;;5.40;99.90;;;;;;4995405;28;20469;-80
2023/01/16 09:50:07;;;;;;;7.33;4.77;;;5.40;99.90;;;;;;4994274;28;20524;-80
2023/01/16 09:58:36;;;;;;;6.13;4.40;;;5.40;99.90;;;;;;4995820;28;20437;-80
2023/01/16 10:01:03;;;;;;;7.50;3.70;;;5.30;99.90;;;;;;4995353;28;21035;-80
2023/01/16 10:03:30;;;;;;;5.80;4.57;;;5.40;99.90;;;;;;4995219;28;20460;-79
2023/01/16 10:06:05;;;;;;;5.00;4.33;;;5.50;99.90;;;;;;4995527;28;20458;-80
2023/01/16 10:08:38;;;;;;;6.13;4.87;;;5.40;99.90;;;;;;4994948;28;20461;-80
2023/01/16 10:11:13;;;;;;;5.10;4.60;;;5.50;99.90;;;;;;4995221;28;20477;-81
2023/01/16 10:13:53;;;;;;;4.23;3.80;;;5.50;99.90;;;;;;4994937;28;20458;-80
2023/01/16 10:16:28;;;;;;;4.13;3.20;;;5.60;99.90;;;;;;4995071;28;20477;-80
2023/01/16 10:19:01;;;;;;;4.37;3.10;;;5.60;99.90;;;;;;4996301;28;20449;-80
2023/01/16 10:21:42;;;;;;;3.53;3.00;;;5.60;99.90;;;;;;4995848;28;20485;-80
2023/01/16 10:24:18;;;;;;;6.57;3.10;;;5.70;99.90;;;;;;4995180;28;20460;-79
2023/01/16 10:26:55;;;;;;;3.70;2.40;;;5.70;99.90;;;;;;4995820;28;20199;-79
2023/01/16 10:29:30;;;;;;;3.73;2.40;;;5.80;99.90;;;;;;4994839;28;20833;-80
2023/01/16 10:32:01;;;;;;;3.63;2.50;;;5.80;99.90;;;;;;4996164;28;20469;-80
2023/01/16 10:34:32;;;;;;;3.40;2.40;;;5.80;99.90;;;;;;4996362;28;20455;-80
2023/01/16 10:37:04;;;;;;;3.50;2.13;;;5.90;99.90;;;;;;4995986;28;20450;-80
2023/01/16 10:39:34;;;;;;;3.50;1.90;;;5.80;99.90;;;;;;4997121;28;20452;-80
2023/01/16 10:50:40;;;;;;;8.70;1.57;;;6.00;99.90;;;;;;4998825;28;20928;-80
2023/01/16 10:53:09;;;;;;;3.67;1.70;;;6.10;99.90;;;;;;4998753;28;20458;-80
2023/01/16 10:55:40;;;;;;;3.23;1.37;;;6.10;99.90;;;;;;4999197;28;20457;-80
2023/01/16 10:58:12;;;;;;;7.70;1.47;;;6.40;99.90;;;;;;4999035;28;20469;-80
2023/01/16 11:00:44;;;;;;;3.40;1.30;;;6.60;99.90;;;;;;4999422;28;21028;-81
2023/01/16 11:03:18;;;;;;;3.00;1.13;;;6.80;99.90;;;;;;4998621;28;20880;-80
2023/01/16 11:05:45;;;;;;;4.20;1.00;;;6.90;99.90;;;;;;4998796;28;20477;-81
2023/01/16 11:08:13;;;;;;;3.60;1.30;;;6.90;99.90;;;;;;4999118;28;20461;-80
2023/01/16 11:10:41;;;;;;;3.50;1.43;;;6.80;99.90;;;;;;4998840;28;20478;-80
2023/01/16 11:18:50;;;;;;;3.00;0.90;;;6.60;99.90;;;;;;4998744;28;20441;-80
2023/01/16 11:21:26;;;;;;;3.70;0.90;;;6.60;99.90;;;;;;4998724;28;20474;-80
2023/01/16 11:23:58;;;;;;;5.60;1.07;;;6.50;99.90;;;;;;4998389;28;21012;-80
2023/01/16 11:26:25;;;;;;;3.53;0.90;;;6.40;99.90;;;;;;4998200;28;20450;-78
2023/01/16 11:28:54;;;;;;;3.27;1.30;;;6.40;99.90;;;;;;4998615;28;20459;-83
2023/01/16 11:31:25;;;;;;;4.30;1.10;;;6.40;99.90;;;;;;4998846;28;20838;-80
2023/01/16 11:33:57;;;;;;;3.20;1.20;;;6.30;99.90;;;;;;4999076;28;20481;-80
2023/01/16 11:36:26;;;;;;;4.03;1.20;;;6.50;99.90;;;;;;4998755;28;20450;-80
2023/01/16 11:38:54;;;;;;;3.53;1.10;;;6.60;99.90;;;;;;4999511;28;20465;-82
2023/01/16 11:41:24;;;;;;;3.20;1.07;;;6.80;99.90;;;;;;4999286;28;20474;-81
2023/01/16 11:47:00;;;;;;;3.40;1.20;;;6.70;99.90;;;;;;4996729;28;20955;-80
2023/01/16 11:49:34;;;;;;;3.20;1.03;;;6.80;99.90;;;;;;4998839;28;20450;-82
2023/01/16 11:52:03;;;;;;;3.40;1.40;;;6.70;99.90;;;;;;4999682;28;20470;-80
2023/01/16 11:54:32;;;;;;;4.50;1.10;;;6.80;99.90;;;;;;4998520;28;20967;-80
2023/01/16 11:57:32;;;;;;;3.10;1.17;;;6.80;99.90;;;;;;4997571;28;20465;-80
2023/01/16 12:00:24;;;;;;;3.37;1.00;;;6.80;99.90;;;;;;4992708;28;20812;-80
2023/01/16 12:03:29;;;;;;;4.07;1.17;;;6.70;99.90;;;;;;4998579;28;20508;-80
2023/01/16 12:06:07;;;;;;;3.70;1.33;;;6.60;99.90;;;;;;4998168;28;20482;-80
2023/01/16 12:09:04;;;;;;;5.47;1.23;;;6.50;99.90;;;;;;4998589;28;20976;-83
2023/01/16 12:11:48;;;;;;;6.13;1.43;;;6.40;99.90;;;;;;4977626;28;20474;-80
2023/01/16 12:14:21;;;;;;;3.73;1.60;;;6.40;99.90;;;;;;4998324;28;20457;-80
2023/01/16 12:17:01;;;;;;;3.77;1.67;;;6.30;99.90;;;;;;4997975;28;20541;-81
2023/01/16 12:19:54;;;;;;;7.03;1.50;;;6.30;99.90;;;;;;4997770;28;20450;-82
2023/01/16 12:22:29;;;;;;;3.50;1.57;;;6.30;99.90;;;;;;4997912;28;20457;-80
2023/01/16 12:25:02;;;;;;;3.70;1.40;;;6.30;99.90;;;;;;4997576;28;20482;-80
2023/01/16 12:27:41;;;;;;;5.03;1.47;;;6.40;99.90;;;;;;4997342;28;20469;-80
2023/01/16 12:30:21;;;;;;;4.23;1.57;;;6.50;99.90;;;;;;4997990;28;20488;-80
2023/01/16 12:33:02;;;;;;;8.20;1.77;;;6.50;99.90;;;;;;4997716;28;20449;-79
2023/01/16 12:35:45;;;;;;;6.57;1.60;;;6.50;99.90;;;;;;4997478;28;20450;-81
2023/01/16 12:38:16;;;;;;;3.23;1.40;;;6.60;99.90;;;;;;4997645;28;20458;-80
2023/01/16 12:44:20;;;;;;;5.83;1.30;;;6.90;99.90;;;;;;4997753;28;20489;-80
2023/01/16 12:46:58;;;;;;;6.10;2.30;;;6.90;99.90;;;;;;4997336;28;20496;-80
2023/01/16 12:49:35;;;;;;;5.67;1.80;;;6.80;99.90;;;;;;4997954;28;20453;-80
2023/01/16 12:52:22;;;;;;;3.60;1.43;;;6.70;99.90;;;;;;4997783;28;20480;-80
2023/01/16 12:55:06;;;;;;;3.43;1.37;;;6.60;99.90;;;;;;4995444;28;20450;-80
2023/01/16 12:57:44;;;;;;;4.00;2.43;;;6.30;99.90;;;;;;4995338;28;20461;-79
2023/01/16 13:00:13;;;;;;;5.60;5.10;;;6.10;99.90;;;;;;4994123;28;20478;-79
2023/01/16 13:02:46;;;;;;;13.00;11.70;;;5.80;99.90;;;;;;4994587;28;20458;-80
2023/01/16 13:05:18;;;;;;;31.83;30.53;;;5.70;99.90;;;;;;4995573;28;20469;-80
2023/01/16 13:07:51;;;;;;;46.07;44.17;;;5.70;99.90;;;;;;4994787;28;20458;-79
2023/01/16 13:13:24;;;;;;;78.47;75.70;;;5.60;99.90;;;;;;4994643;28;21064;-79
2023/01/16 13:15:58;;;;;;;109.97;106.33;;;5.50;99.90;;;;;;4994223;28;20504;-79
2023/01/16 13:18:28;;;;;;;108.97;105.37;;;5.60;99.90;;;;;;4994142;28;20831;-80
2023/01/16 13:20:58;;;;;;;113.07;109.27;;;5.60;99.90;;;;;;4993939;28;20992;-79
2023/01/16 13:23:30;;;;;;;116.17;112.30;;;5.70;99.90;;;;;;4993911;28;20453;-79
2023/01/16 13:26:02;;;;;;;104.93;101.33;;;5.80;99.90;;;;;;4993321;28;20482;-79
2023/01/16 13:28:36;;;;;;;76.67;73.77;;;5.90;99.90;;;;;;4993588;28;20548;-81
2023/01/16 13:31:08;;;;;;;77.90;75.10;;;6.00;99.90;;;;;;4993561;28;20493;-79
2023/01/16 13:33:42;;;;;;;82.47;79.57;;;5.90;99.90;;;;;;4993760;28;20461;-80
2023/01/16 13:36:21;;;;;;;55.17;53.17;;;5.80;99.90;;;;;;4994076;28;20885;-79
2023/01/16 13:39:07;;;;;;;73.47;70.37;;;5.80;99.90;;;;;;4994719;28;20508;-80
2023/01/16 13:41:38;;;;;;;51.33;49.43;;;5.80;99.90;;;;;;4995558;28;20489;-80
2023/01/16 13:47:05;;;;;;;63.70;61.40;;;5.90;99.90;;;;;;4995005;28;20450;-80
2023/01/16 13:49:32;;;;;;;59.93;57.77;;;5.80;99.90;;;;;;4995331;28;20959;-80
2023/01/16 13:52:02;;;;;;;63.17;60.90;;;5.70;99.90;;;;;;4994668;28;20478;-80
2023/01/16 13:54:37;;;;;;;81.97;79.13;;;5.70;99.90;;;;;;4994524;28;20450;-78
2023/01/16 13:57:09;;;;;;;97.73;94.27;;;5.70;99.90;;;;;;4992819;28;20486;-81
2023/01/16 13:59:45;;;;;;;105.00;101.47;;;5.60;99.90;;;;;;4993221;28;20834;-80
2023/01/16 14:02:38;;;;;;;100.83;97.50;;;5.60;99.90;;;;;;4993114;28;20957;-79